createdAt,value
2023-01-28T00:01:30.806Z,102808.69
2023-01-28T00:06:35.944Z,102815.66
2023-01-28T00:11:39.774Z,102820.75
2023-01-28T00:16:43.479Z,102828.25
2023-01-28T00:21:48.594Z,102825.38
2023-01-28T00:26:52.577Z,102829.09
2023-01-28T00:31:58.942Z,102825.97
2023-01-28T00:37:07.294Z,102830.72
2023-01-28T00:42:11.073Z,102834.94
2023-01-28T00:47:14.879Z,102834.81
2023-01-28T00:52:19.987Z,102838.09
2023-01-28T00:57:23.915Z,102838.97
2023-01-28T01:02:27.922Z,102843.06
2023-01-28T01:07:42.032Z,102851.84
2023-01-28T01:12:48.206Z,102843.53
2023-01-28T01:17:52.037Z,102838.75
2023-01-28T01:22:57.670Z,102837.69
2023-01-28T01:28:03.385Z,102838.59
2023-01-28T01:33:07.289Z,102835.12
2023-01-28T01:38:12.416Z,102822.03
2023-01-28T01:43:18.640Z,102827.13
2023-01-28T01:48:26.496Z,102826.06
2023-01-28T01:53:33.581Z,102834.47
2023-01-28T01:58:42.476Z,102829.19
2023-01-28T02:03:54.367Z,102829.06
2023-01-28T02:09:00.300Z,102834.72
2023-01-28T02:14:07.621Z,102843.31
2023-01-28T02:19:13.417Z,102845.28
2023-01-28T02:24:52.909Z,102848.91
2023-01-28T02:30:04.106Z,102846.19
2023-01-28T02:35:15.309Z,102846.19
2023-01-28T02:40:23.932Z,102840.75
2023-01-28T02:45:47.886Z,102832.34
2023-01-28T02:51:02.899Z,102834.88
2023-01-28T02:56:18.968Z,102843.13
2023-01-28T03:01:30.639Z,102849.56
2023-01-28T03:06:39.222Z,102844.47
2023-01-28T03:12:03.272Z,102847.03
2023-01-28T03:17:32.387Z,102847.44
2023-01-28T03:22:58.236Z,102846.34
2023-01-28T03:28:23.876Z,102852.03
2023-01-28T03:33:48.693Z,102856.06
2023-01-28T03:38:52.967Z,102853.34
2023-01-28T03:43:57.053Z,102847.50
2023-01-28T03:49:02.340Z,102858.44
2023-01-28T03:54:06.497Z,102859.38
2023-01-28T03:59:10.501Z,102861.94
2023-01-28T04:04:22.938Z,102862.31
2023-01-28T04:09:27.163Z,102868.19
2023-01-28T04:14:31.831Z,102875.66
2023-01-28T04:19:41.810Z,102881.53
2023-01-28T04:24:45.780Z,102883.91
2023-01-28T04:29:49.610Z,102883.72
2023-01-28T04:34:56.510Z,102875.00
2023-01-28T04:40:00.607Z,102868.97
2023-01-28T04:45:05.723Z,102873.94
2023-01-28T04:50:11.696Z,102868.47
2023-01-28T04:55:15.861Z,102867.56
2023-01-28T05:00:20.620Z,102871.97
2023-01-28T05:05:25.851Z,102874.16
2023-01-28T05:10:30.358Z,102886.78
2023-01-28T05:15:34.623Z,102881.66
2023-01-28T05:20:39.836Z,102892.47
2023-01-28T05:25:43.860Z,102881.50
2023-01-28T05:30:49.787Z,102874.22
2023-01-28T05:35:56.217Z,102875.16
2023-01-28T05:41:00.184Z,102875.16
2023-01-28T05:46:04.923Z,102878.44
2023-01-28T05:51:10.342Z,102881.75
2023-01-28T05:56:14.359Z,102884.84
2023-01-28T06:01:18.577Z,102890.87
2023-01-28T06:06:25.405Z,102881.81
2023-01-28T06:11:29.475Z,102886.16
2023-01-28T06:16:34.219Z,102880.91
2023-01-28T06:21:43.253Z,102877.59
2023-01-28T06:26:47.856Z,102876.50
2023-01-28T06:31:52.145Z,102877.97
2023-01-28T06:36:57.268Z,102877.41
2023-01-28T06:42:01.105Z,102883.44
2023-01-28T06:47:04.993Z,102892.00
2023-01-28T06:52:10.160Z,102891.25
2023-01-28T06:57:14.120Z,102883.44
2023-01-28T07:02:17.939Z,102895.66
2023-01-28T07:07:23.060Z,102894.87
2023-01-28T07:12:26.920Z,102895.66
2023-01-28T07:17:30.756Z,102909.88
2023-01-28T07:22:36.019Z,102913.34
2023-01-28T07:27:39.779Z,102921.00
2023-01-28T07:32:43.674Z,102927.38
2023-01-28T07:37:54.257Z,102930.69
2023-01-28T07:42:58.257Z,102938.00
2023-01-28T07:48:05.613Z,102937.59
2023-01-28T07:53:12.883Z,102934.13
2023-01-28T07:58:16.708Z,102933.25
2023-01-28T08:03:22.622Z,102934.87
2023-01-28T08:08:28.420Z,102940.91
2023-01-28T08:13:32.163Z,102946.00
2023-01-28T08:18:35.991Z,102955.13
2023-01-28T08:23:41.067Z,102962.97
2023-01-28T08:28:44.818Z,102977.53
2023-01-28T08:33:48.584Z,102981.16
2023-01-28T08:38:55.159Z,102972.94
2023-01-28T08:43:58.973Z,102981.34
2023-01-28T08:49:02.890Z,102994.12
2023-01-28T08:54:10.261Z,102979.53
2023-01-28T08:59:14.029Z,102990.66
2023-01-28T09:04:19.828Z,103005.03
2023-01-28T09:09:24.886Z,103005.03
2023-01-28T09:14:28.668Z,103003.97
2023-01-28T09:19:32.455Z,103000.13
2023-01-28T09:24:38.988Z,103006.66
2023-01-28T09:29:42.963Z,103020.31
2023-01-28T09:34:46.829Z,103037.06
2023-01-28T09:39:51.932Z,103044.00
2023-01-28T09:45:04.122Z,103044.91
2023-01-28T09:50:15.898Z,103050.94
2023-01-28T09:55:30.467Z,103052.97
2023-01-28T10:00:43.496Z,103054.28
2023-01-28T10:05:59.291Z,103049.91
2023-01-28T10:11:13.719Z,103069.06
2023-01-28T10:16:25.706Z,103069.06
2023-01-28T10:21:34.470Z,103066.91
2023-01-28T10:26:42.746Z,103062.47
2023-01-28T10:31:53.725Z,103070.66
2023-01-28T10:36:58.761Z,103067.53
2023-01-28T10:42:03.926Z,103063.09
2023-01-28T10:47:13.775Z,103069.81
2023-01-28T10:52:20.185Z,103045.03
2023-01-28T10:57:25.423Z,103033.25
2023-01-28T11:02:37.023Z,103027.91
2023-01-28T11:07:40.878Z,103016.19
2023-01-28T11:12:56.253Z,103029.56
2023-01-28T11:18:04.000Z,103017.03
2023-01-28T11:23:08.001Z,103018.97
2023-01-28T11:28:20.504Z,103000.88
2023-01-28T11:33:32.292Z,102998.66
2023-01-28T11:38:36.445Z,103008.69
2023-01-28T11:43:41.653Z,102998.12
2023-01-28T11:48:55.143Z,102979.13
2023-01-28T11:54:14.832Z,102952.09
2023-01-28T11:59:38.093Z,102921.37
2023-01-28T12:04:58.665Z,102915.97
2023-01-28T12:10:10.812Z,102909.62
2023-01-28T12:15:47.380Z,102883.66
2023-01-28T12:20:57.288Z,102893.16
2023-01-28T12:26:09.078Z,102913.12
2023-01-28T12:31:36.437Z,102910.50
2023-01-28T12:36:50.438Z,102929.78
2023-01-28T12:42:05.397Z,102935.69
2023-01-28T12:47:13.483Z,102938.97
2023-01-28T12:52:21.212Z,102941.59
2023-01-28T12:57:29.009Z,102945.31
2023-01-28T13:02:40.450Z,102936.91
2023-01-28T13:07:49.266Z,102951.03
2023-01-28T13:12:54.650Z,102951.69
2023-01-28T13:18:00.922Z,102937.91
2023-01-28T13:23:07.585Z,102938.03
2023-01-28T13:28:28.505Z,102923.88
2023-01-28T13:33:35.682Z,102913.09
2023-01-28T13:38:40.306Z,102914.13
2023-01-28T13:43:44.138Z,102901.41
2023-01-28T13:48:52.178Z,102878.06
2023-01-28T13:54:01.734Z,102864.28
2023-01-28T13:59:29.299Z,102858.44
2023-01-28T14:05:00.203Z,102861.84
2023-01-28T14:10:27.013Z,102865.53
2023-01-28T14:16:15.039Z,102870.13
2023-01-28T14:21:21.954Z,102897.66
2023-01-28T14:26:33.176Z,102905.00
2023-01-28T14:31:39.094Z,102905.31
2023-01-28T14:36:46.633Z,102898.75
2023-01-28T14:41:53.455Z,102890.19
2023-01-28T14:47:18.588Z,102899.78
2023-01-28T14:52:44.069Z,102910.47
2023-01-28T14:57:53.140Z,102911.50
2023-01-28T15:02:57.540Z,102910.63
2023-01-28T15:08:02.726Z,102905.50
2023-01-28T15:13:09.381Z,102901.41
2023-01-28T15:18:18.520Z,102893.78
2023-01-28T15:23:27.629Z,102907.31
2023-01-28T15:28:34.159Z,102909.50
2023-01-28T15:33:37.929Z,102908.06
2023-01-28T15:38:43.074Z,102920.88
2023-01-28T15:43:50.397Z,102943.69
2023-01-28T15:49:05.335Z,102949.00
2023-01-28T15:54:12.164Z,102958.84
2023-01-28T15:59:20.882Z,102972.87
2023-01-28T16:04:28.882Z,102979.19
2023-01-28T16:09:36.083Z,102988.56
2023-01-28T16:14:45.264Z,102972.06
2023-01-28T16:19:52.204Z,102969.53
2023-01-28T16:24:57.404Z,102950.47
2023-01-28T16:30:02.261Z,102952.00
2023-01-28T16:35:15.234Z,102969.47
2023-01-28T16:40:22.995Z,102971.50
2023-01-28T16:45:29.104Z,102962.94
2023-01-28T16:50:33.664Z,102956.63
2023-01-28T16:55:38.761Z,102965.19
2023-01-28T17:00:42.575Z,102976.44
2023-01-28T17:05:46.455Z,102985.66
2023-01-28T17:10:54.974Z,102983.94
2023-01-28T17:16:02.186Z,102984.62
2023-01-28T17:21:07.828Z,102977.97
2023-01-28T17:26:15.427Z,102973.38
2023-01-28T17:31:19.345Z,102978.53
2023-01-28T17:36:24.461Z,102989.72
2023-01-28T17:41:29.695Z,102979.88
2023-01-28T17:46:33.448Z,102985.22
2023-01-28T17:51:37.256Z,102982.03
2023-01-28T17:56:42.474Z,102969.16
2023-01-28T18:01:47.450Z,102972.31
2023-01-28T18:06:51.698Z,102961.75
2023-01-28T18:11:56.930Z,102974.72
2023-01-28T18:17:01.083Z,102987.66
2023-01-28T18:22:04.883Z,102998.44
2023-01-28T18:27:10.032Z,103004.41
2023-01-28T18:32:13.784Z,103008.19
2023-01-28T18:37:17.837Z,103007.09
2023-01-28T18:42:25.041Z,103011.47
2023-01-28T18:47:28.937Z,103018.62
2023-01-28T18:52:32.711Z,103023.28
2023-01-28T18:57:37.861Z,103029.44
2023-01-28T19:02:41.611Z,103018.03
2023-01-28T19:07:45.360Z,103028.84
2023-01-28T19:12:50.517Z,103025.44
2023-01-28T19:17:54.321Z,103018.34
2023-01-28T19:22:58.152Z,103011.81
2023-01-28T19:28:03.248Z,103021.31
2023-01-28T19:33:07.769Z,103011.88
2023-01-28T19:38:11.599Z,103021.38
2023-01-28T19:43:16.799Z,103009.16
2023-01-28T19:48:20.530Z,103025.03
2023-01-28T19:53:24.449Z,103028.31
2023-01-28T19:58:29.609Z,103027.03
2023-01-28T20:03:33.744Z,103034.13
2023-01-28T20:08:37.477Z,103030.88
2023-01-28T20:13:44.698Z,103015.00
2023-01-28T20:18:53.148Z,103018.69
2023-01-28T20:23:59.290Z,103003.22
2023-01-28T20:29:07.115Z,103003.81
2023-01-28T20:34:16.023Z,103001.28
2023-01-28T20:39:20.042Z,103012.59
2023-01-28T20:44:26.675Z,103021.69
2023-01-28T20:49:30.535Z,103017.66
2023-01-28T20:54:34.336Z,103008.41
2023-01-28T20:59:39.500Z,103002.72
2023-01-28T21:04:43.258Z,103012.19
2023-01-28T21:09:46.944Z,102998.38
2023-01-28T21:14:54.261Z,102996.00
2023-01-28T21:19:58.316Z,102996.19
2023-01-28T21:25:05.311Z,103001.06
2023-01-28T21:30:12.414Z,102999.25
2023-01-28T21:35:16.379Z,102995.25
2023-01-28T21:40:20.271Z,102994.91
2023-01-28T21:45:25.596Z,102994.72
2023-01-28T21:50:29.387Z,102995.28
2023-01-28T21:55:34.441Z,102996.94
2023-01-28T22:00:39.500Z,102992.72
2023-01-28T22:05:43.892Z,102985.66
2023-01-28T22:10:47.604Z,102998.22
2023-01-28T22:15:52.792Z,102996.22
2023-01-28T22:20:59.840Z,103003.00
2023-01-28T22:26:03.729Z,103001.00
2023-01-28T22:31:11.034Z,102990.62
2023-01-28T22:36:16.550Z,102994.28
2023-01-28T22:41:23.165Z,102991.03
2023-01-28T22:46:29.251Z,102995.06
2023-01-28T22:51:35.096Z,102997.06
2023-01-28T22:56:40.172Z,102988.12
2023-01-28T23:01:45.301Z,102986.13
2023-01-28T23:06:49.104Z,102976.88
2023-01-28T23:11:52.899Z,102963.62
2023-01-28T23:17:15.653Z,102964.88
2023-01-28T23:22:40.715Z,102960.34
2023-01-28T23:27:44.966Z,102963.09
2023-01-28T23:32:50.844Z,102968.91
2023-01-28T23:37:55.665Z,102963.44
2023-01-28T23:43:01.580Z,102955.44
2023-01-28T23:48:06.730Z,102958.91
2023-01-28T23:53:13.210Z,102956.91
2023-01-28T23:58:26.572Z,102968.53
